sensor_id;sensor_type;location;lat;lon;timestamp;pressure;altitude;pressure_sealevel;temperature;humidity
27980;BME280;15315;50.836;4.430;2023-03-03T00:02:50;101813.72;;;6.29;80.01
27980;BME280;15315;50.836;4.430;2023-03-03T00:12:51;101832.13;;;6.38;79.80
27980;BME280;15315;50.836;4.430;2023-03-03T00:22:51;101824.88;;;6.16;80.60
27980;BME280;15315;50.836;4.430;2023-03-03T00:32:53;101827.41;;;5.66;83.69
27980;BME280;15315;50.836;4.430;2023-03-03T00:42:57;101832.72;;;6.22;80.25
27980;BME280;15315;50.836;4.430;2023-03-03T01:03:06;101838.66;;;5.49;83.87
27980;BME280;15315;50.836;4.430;2023-03-03T01:13:07;101843.06;;;6.04;81.17
27980;BME280;15315;50.836;4.430;2023-03-03T01:23:09;101846.38;;;6.63;76.17
27980;BME280;15315;50.836;4.430;2023-03-03T01:33:09;101851.81;;;5.83;80.39
27980;BME280;15315;50.836;4.430;2023-03-03T01:43:14;101851.56;;;6.19;78.58
27980;BME280;15315;50.836;4.430;2023-03-03T01:53:21;101850.94;;;6.37;77.89
27980;BME280;15315;50.836;4.430;2023-03-03T02:03:23;101850.56;;;5.67;83.11
27980;BME280;15315;50.836;4.430;2023-03-03T02:13:24;101839.50;;;5.22;87.02
27980;BME280;15315;50.836;4.430;2023-03-03T02:33:52;101831.13;;;6.16;82.22
27980;BME280;15315;50.836;4.430;2023-03-03T02:44:08;101838.94;;;5.94;86.48
27980;BME280;15315;50.836;4.430;2023-03-03T02:54:11;101845.28;;;5.07;98.89
27980;BME280;15315;50.836;4.430;2023-03-03T03:04:15;101841.94;;;5.30;100.00
27980;BME280;15315;50.836;4.430;2023-03-03T03:14:15;101838.34;;;4.71;100.00
27980;BME280;15315;50.836;4.430;2023-03-03T03:24:16;101844.75;;;5.25;100.00
27980;BME280;15315;50.836;4.430;2023-03-03T03:34:17;101849.75;;;6.19;91.24
27980;BME280;15315;50.836;4.430;2023-03-03T03:44:17;101853.31;;;5.64;98.96
27980;BME280;15315;50.836;4.430;2023-03-03T03:54:18;101870.72;;;4.59;100.00
27980;BME280;15315;50.836;4.430;2023-03-03T04:04:18;101873.19;;;4.99;100.00
27980;BME280;15315;50.836;4.430;2023-03-03T04:14:19;101849.94;;;5.59;100.00
27980;BME280;15315;50.836;4.430;2023-03-03T04:24:19;101866.88;;;5.30;100.00
27980;BME280;15315;50.836;4.430;2023-03-03T04:34:20;101875.66;;;5.05;100.00
27980;BME280;15315;50.836;4.430;2023-03-03T04:44:20;101874.13;;;4.96;100.00
27980;BME280;15315;50.836;4.430;2023-03-03T04:54:21;101879.66;;;3.89;100.00
27980;BME280;15315;50.836;4.430;2023-03-03T05:04:21;101890.66;;;4.10;100.00
27980;BME280;15315;50.836;4.430;2023-03-03T05:14:22;101895.34;;;4.01;100.00
27980;BME280;15315;50.836;4.430;2023-03-03T05:24:22;101897.72;;;4.80;100.00
27980;BME280;15315;50.836;4.430;2023-03-03T05:34:23;101897.75;;;4.47;100.00
27980;BME280;15315;50.836;4.430;2023-03-03T05:44:23;101915.03;;;4.98;100.00
27980;BME280;15315;50.836;4.430;2023-03-03T05:54:24;101905.88;;;4.76;100.00
27980;BME280;15315;50.836;4.430;2023-03-03T06:04:24;101920.91;;;4.80;100.00
27980;BME280;15315;50.836;4.430;2023-03-03T06:14:25;101938.72;;;4.79;100.00
27980;BME280;15315;50.836;4.430;2023-03-03T06:24:25;101949.03;;;3.47;100.00
27980;BME280;15315;50.836;4.430;2023-03-03T06:34:29;101952.00;;;4.49;100.00
27980;BME280;15315;50.836;4.430;2023-03-03T06:44:29;101955.16;;;4.64;100.00
27980;BME280;15315;50.836;4.430;2023-03-03T06:54:30;101977.47;;;4.96;100.00
27980;BME280;15315;50.836;4.430;2023-03-03T07:04:32;101987.13;;;5.01;100.00
27980;BME280;15315;50.836;4.430;2023-03-03T07:14:36;101994.09;;;5.07;95.33
27980;BME280;15315;50.836;4.430;2023-03-03T07:24:40;102016.97;;;4.49;96.53
27980;BME280;15315;50.836;4.430;2023-03-03T07:34:48;102012.81;;;5.07;96.64
27980;BME280;15315;50.836;4.430;2023-03-03T07:44:53;102032.31;;;5.42;94.43
27980;BME280;15315;50.836;4.430;2023-03-03T07:54:56;102041.53;;;5.63;92.71
27980;BME280;15315;50.836;4.430;2023-03-03T08:04:58;102055.31;;;4.82;95.46
27980;BME280;15315;50.836;4.430;2023-03-03T08:15:20;102069.25;;;4.19;100.00
27980;BME280;15315;50.836;4.430;2023-03-03T08:25:21;102074.34;;;4.32;100.00
27980;BME280;15315;50.836;4.430;2023-03-03T08:35:22;102075.53;;;4.92;98.54
27980;BME280;15315;50.836;4.430;2023-03-03T08:45:24;102074.91;;;5.16;94.43
27980;BME280;15315;50.836;4.430;2023-03-03T08:55:24;102084.94;;;5.40;93.88
27980;BME280;15315;50.836;4.430;2023-03-03T09:05:25;102100.31;;;4.99;91.11
27980;BME280;15315;50.836;4.430;2023-03-03T09:15:28;102103.25;;;4.88;92.71
27980;BME280;15315;50.836;4.430;2023-03-03T09:25:32;102115.41;;;5.01;92.34
27980;BME280;15315;50.836;4.430;2023-03-03T09:35:37;102114.94;;;6.16;84.03
27980;BME280;15315;50.836;4.430;2023-03-03T09:46:02;102126.16;;;6.29;84.31
27980;BME280;15315;50.836;4.430;2023-03-03T10:16:54;102142.16;;;5.67;89.44
27980;BME280;15315;50.836;4.430;2023-03-03T10:47:43;102139.38;;;6.02;84.54
27980;BME280;15315;50.836;4.430;2023-03-03T11:39:15;102139.06;;;6.44;81.25
27980;BME280;15315;50.836;4.430;2023-03-03T11:49:24;102138.41;;;6.93;77.26
27980;BME280;15315;50.836;4.430;2023-03-03T12:09:40;102121.00;;;7.83;73.62
27980;BME280;15315;50.836;4.430;2023-03-03T12:40:56;102098.00;;;9.91;64.76
27980;BME280;15315;50.836;4.430;2023-03-03T13:11:35;102089.81;;;8.02;67.29
27980;BME280;15315;50.836;4.430;2023-03-03T13:21:54;102069.03;;;8.74;65.61
27980;BME280;15315;50.836;4.430;2023-03-03T13:32:19;102067.28;;;9.95;62.78
27980;BME280;15315;50.836;4.430;2023-03-03T14:03:10;102038.38;;;9.41;63.97
27980;BME280;15315;50.836;4.430;2023-03-03T14:33:56;102030.59;;;8.50;66.75
27980;BME280;15315;50.836;4.430;2023-03-03T14:44:00;102020.13;;;9.28;64.28
27980;BME280;15315;50.836;4.430;2023-03-03T14:54:07;102030.91;;;8.64;65.95
27980;BME280;15315;50.836;4.430;2023-03-03T15:14:15;102019.66;;;8.96;66.13
27980;BME280;15315;50.836;4.430;2023-03-03T15:24:25;102009.75;;;9.18;66.16
27980;BME280;15315;50.836;4.430;2023-03-03T15:45:24;102003.84;;;8.69;66.91
27980;BME280;15315;50.836;4.430;2023-03-03T16:26:47;102008.94;;;9.16;65.50
27980;BME280;15315;50.836;4.430;2023-03-03T17:18:28;102037.66;;;9.95;63.58
27980;BME280;15315;50.836;4.430;2023-03-03T17:29:30;102041.06;;;9.80;64.36
27980;BME280;15315;50.836;4.430;2023-03-03T17:50:11;102053.88;;;10.32;62.74
27980;BME280;15315;50.836;4.430;2023-03-03T18:10:58;102073.63;;;10.33;61.20
27980;BME280;15315;50.836;4.430;2023-03-03T18:22:24;102084.06;;;10.02;61.59
27980;BME280;15315;50.836;4.430;2023-03-03T18:52:19;102085.34;;;10.32;61.32
27980;BME280;15315;50.836;4.430;2023-03-03T19:02:36;102088.59;;;10.76;60.54
27980;BME280;15315;50.836;4.430;2023-03-03T19:12:46;102080.03;;;10.85;59.71
27980;BME280;15315;50.836;4.430;2023-03-03T19:23:44;102088.84;;;10.53;60.20
27980;BME280;15315;50.836;4.430;2023-03-03T19:53:56;102102.69;;;10.45;59.58
27980;BME280;15315;50.836;4.430;2023-03-03T20:14:25;102118.06;;;10.43;58.64
27980;BME280;15315;50.836;4.430;2023-03-03T21:06:03;102157.38;;;9.28;61.68
27980;BME280;15315;50.836;4.430;2023-03-03T21:16:15;102156.63;;;9.44;62.62
27980;BME280;15315;50.836;4.430;2023-03-03T21:36:52;102162.13;;;9.21;64.09
27980;BME280;15315;50.836;4.430;2023-03-03T21:46:53;102175.91;;;8.69;63.95
27980;BME280;15315;50.836;4.430;2023-03-03T21:56:53;102178.63;;;8.90;62.62
27980;BME280;15315;50.836;4.430;2023-03-03T22:06:54;102170.84;;;10.08;60.57
27980;BME280;15315;50.836;4.430;2023-03-03T22:16:55;102163.13;;;9.80;60.08
27980;BME280;15315;50.836;4.430;2023-03-03T22:26:56;102169.41;;;9.81;58.86
27980;BME280;15315;50.836;4.430;2023-03-03T22:36:56;102167.94;;;9.74;59.15
27980;BME280;15315;50.836;4.430;2023-03-03T22:46:57;102176.31;;;8.35;61.35
27980;BME280;15315;50.836;4.430;2023-03-03T22:56:57;102173.97;;;8.72;59.75
27980;BME280;15315;50.836;4.430;2023-03-03T23:06:59;102169.78;;;9.52;58.76
27980;BME280;15315;50.836;4.430;2023-03-03T23:16:59;102170.97;;;9.45;58.26
27980;BME280;15315;50.836;4.430;2023-03-03T23:26:59;102172.13;;;9.59;58.01
27980;BME280;15315;50.836;4.430;2023-03-03T23:37:00;102166.28;;;8.85;60.13
27980;BME280;15315;50.836;4.430;2023-03-03T23:47:00;102168.13;;;9.28;59.54
27980;BME280;15315;50.836;4.430;2023-03-03T23:57:00;102170.75;;;9.29;59.20
